createdAt,value
2018-09-21T00:01:12.492Z,99.60
2018-09-21T00:03:50.907Z,99.90
2018-09-21T00:06:25.346Z,99.90
2018-09-21T00:08:54.797Z,99.90
2018-09-21T00:11:23.703Z,99.90
2018-09-21T00:13:53.016Z,99.90
2018-09-21T00:16:22.426Z,99.90
2018-09-21T00:18:51.763Z,99.90
2018-09-21T00:21:21.166Z,99.90
2018-09-21T00:23:50.019Z,99.90
2018-09-21T00:26:19.298Z,99.90
2018-09-21T00:28:48.271Z,99.90
2018-09-21T00:31:17.349Z,99.90
2018-09-21T00:33:46.443Z,99.90
2018-09-21T00:36:15.700Z,99.90
2018-09-21T00:38:45.069Z,99.90
2018-09-21T00:41:14.231Z,99.90
2018-09-21T00:43:43.179Z,99.90
2018-09-21T00:46:12.647Z,99.90
2018-09-21T00:48:41.841Z,99.90
2018-09-21T00:51:11.081Z,99.90
2018-09-21T00:53:40.240Z,99.90
2018-09-21T00:56:09.367Z,99.90
2018-09-21T00:58:38.423Z,99.90
2018-09-21T01:01:07.749Z,99.90
2018-09-21T01:03:36.782Z,99.90
2018-09-21T01:06:05.729Z,99.90
2018-09-21T01:08:34.811Z,99.90
2018-09-21T01:11:03.848Z,99.90
2018-09-21T01:13:44.069Z,99.90
2018-09-21T01:16:18.260Z,99.90
2018-09-21T01:18:53.031Z,99.90
2018-09-21T01:21:29.764Z,99.90
2018-09-21T01:24:04.548Z,99.90
2018-09-21T01:26:39.770Z,99.90
2018-09-21T01:29:17.742Z,99.90
2018-09-21T01:31:53.493Z,99.90
2018-09-21T01:34:27.455Z,99.90
2018-09-21T01:37:01.803Z,99.90
2018-09-21T01:39:38.377Z,99.90
2018-09-21T01:42:14.200Z,99.90
2018-09-21T01:44:47.949Z,99.90
2018-09-21T01:47:27.297Z,99.90
2018-09-21T01:50:00.703Z,99.90
2018-09-21T01:52:37.063Z,99.90
2018-09-21T01:55:10.384Z,99.90
2018-09-21T01:57:43.464Z,99.90
2018-09-21T02:00:18.079Z,99.90
2018-09-21T02:02:51.739Z,99.90
2018-09-21T02:05:26.135Z,99.90
2018-09-21T02:08:01.418Z,99.90
2018-09-21T02:10:36.279Z,99.90
2018-09-21T02:13:10.531Z,99.90
2018-09-21T02:15:45.434Z,99.90
2018-09-21T02:18:23.839Z,99.90
2018-09-21T02:20:57.392Z,99.90
2018-09-21T02:23:33.036Z,99.90
2018-09-21T02:26:08.776Z,99.90
2018-09-21T02:28:42.754Z,99.90
2018-09-21T02:31:20.479Z,99.90
2018-09-21T02:33:54.914Z,99.90
2018-09-21T02:36:30.620Z,99.90
2018-09-21T02:39:05.812Z,99.90
2018-09-21T02:41:40.806Z,99.90
2018-09-21T02:44:24.771Z,99.90
2018-09-21T02:47:06.653Z,99.90
2018-09-21T02:49:40.993Z,99.90
2018-09-21T02:52:16.580Z,99.90
2018-09-21T02:54:50.413Z,99.90
2018-09-21T02:57:26.481Z,99.90
2018-09-21T03:00:01.383Z,99.90
2018-09-21T03:02:35.949Z,99.90
2018-09-21T03:05:09.804Z,99.90
2018-09-21T03:07:43.431Z,99.90
2018-09-21T03:10:18.292Z,99.90
2018-09-21T03:13:02.488Z,99.90
2018-09-21T03:15:46.362Z,99.90
2018-09-21T03:18:21.172Z,99.90
2018-09-21T03:20:56.077Z,99.90
2018-09-21T03:23:33.329Z,99.90
2018-09-21T03:26:08.761Z,99.90
2018-09-21T03:28:42.034Z,99.90
2018-09-21T03:31:16.786Z,99.90
2018-09-21T03:33:51.441Z,99.90
2018-09-21T03:36:25.688Z,99.90
2018-09-21T03:38:59.256Z,99.90
2018-09-21T03:41:33.971Z,99.90
2018-09-21T03:44:09.143Z,99.90
2018-09-21T03:46:42.902Z,99.90
2018-09-21T03:49:15.974Z,99.90
2018-09-21T03:51:49.579Z,99.90
2018-09-21T03:54:22.573Z,99.90
2018-09-21T03:56:56.201Z,99.90
2018-09-21T03:59:29.410Z,99.90
2018-09-21T04:02:03.709Z,99.90
2018-09-21T04:04:43.768Z,99.90
2018-09-21T04:07:17.855Z,99.90
2018-09-21T04:09:51.479Z,99.90
2018-09-21T04:12:25.151Z,99.90
2018-09-21T04:15:00.169Z,99.90
2018-09-21T04:17:33.048Z,99.90
2018-09-21T04:20:07.270Z,99.90
2018-09-21T04:22:40.656Z,99.90
2018-09-21T04:25:17.752Z,99.90
2018-09-21T04:27:50.872Z,99.90
2018-09-21T04:30:24.508Z,99.90
2018-09-21T04:33:02.063Z,99.90
2018-09-21T04:35:34.994Z,99.90
2018-09-21T04:38:09.261Z,99.90
2018-09-21T04:40:43.049Z,99.90
2018-09-21T04:43:17.045Z,99.90
2018-09-21T04:45:50.519Z,99.90
2018-09-21T04:48:24.878Z,99.90
2018-09-21T04:50:58.920Z,99.90
2018-09-21T04:53:32.518Z,99.90
2018-09-21T04:56:07.024Z,99.90
2018-09-21T04:58:40.488Z,99.90
2018-09-21T05:01:14.962Z,99.90
2018-09-21T05:03:49.116Z,99.90
2018-09-21T05:06:23.004Z,99.90
2018-09-21T05:08:56.242Z,99.90
2018-09-21T05:11:29.313Z,99.90
2018-09-21T05:14:02.421Z,99.90
2018-09-21T05:16:36.529Z,99.90
2018-09-21T05:19:09.527Z,99.90
2018-09-21T05:21:42.462Z,99.90
2018-09-21T05:24:15.313Z,99.90
2018-09-21T05:26:48.585Z,99.90
2018-09-21T05:29:21.434Z,99.90
2018-09-21T05:31:55.861Z,99.90
2018-09-21T05:34:29.068Z,99.90
2018-09-21T05:37:03.595Z,99.90
2018-09-21T05:39:37.574Z,99.90
2018-09-21T05:42:10.858Z,99.90
2018-09-21T05:44:45.143Z,99.90
2018-09-21T05:47:19.314Z,99.90
2018-09-21T05:49:53.492Z,99.90
2018-09-21T05:52:25.804Z,99.90
2018-09-21T05:54:56.849Z,99.90
2018-09-21T05:57:30.511Z,99.90
2018-09-21T06:00:04.376Z,99.90
2018-09-21T06:02:36.109Z,99.90
2018-09-21T06:05:11.239Z,99.90
2018-09-21T06:07:43.095Z,99.90
2018-09-21T06:10:15.584Z,99.90
2018-09-21T06:12:50.304Z,99.90
2018-09-21T06:15:22.503Z,99.90
2018-09-21T06:17:54.850Z,99.90
2018-09-21T06:20:28.001Z,99.90
2018-09-21T06:23:01.447Z,99.90
2018-09-21T06:25:33.142Z,99.90
2018-09-21T06:28:06.184Z,99.90
2018-09-21T06:30:37.292Z,99.90
2018-09-21T06:33:10.533Z,99.90
2018-09-21T06:35:44.018Z,99.90
2018-09-21T06:38:14.516Z,99.60
2018-09-21T06:40:47.299Z,99.40
2018-09-21T06:43:20.116Z,99.30
2018-09-21T06:45:52.991Z,99.10
2018-09-21T06:48:27.344Z,99.10
2018-09-21T06:51:00.685Z,99.00
2018-09-21T06:53:31.194Z,98.90
2018-09-21T06:56:07.411Z,98.80
2018-09-21T06:58:38.421Z,98.60
2018-09-21T07:01:18.021Z,98.50
2018-09-21T07:03:50.037Z,98.60
2018-09-21T07:06:28.524Z,97.70
2018-09-21T07:09:00.527Z,97.50
2018-09-21T07:11:32.608Z,97.30
2018-09-21T07:14:04.117Z,97.00
2018-09-21T07:16:34.752Z,96.50
2018-09-21T07:19:06.557Z,96.20
2018-09-21T07:21:40.682Z,95.70
2018-09-21T07:24:12.682Z,95.20
2018-09-21T07:26:44.460Z,94.70
2018-09-21T07:29:15.625Z,94.70
2018-09-21T07:31:46.893Z,94.00
2018-09-21T07:34:17.924Z,93.60
2018-09-21T07:36:51.116Z,93.10
2018-09-21T07:39:22.345Z,92.90
2018-09-21T07:41:54.264Z,93.00
2018-09-21T07:44:31.083Z,92.80
2018-09-21T07:47:02.962Z,92.90
2018-09-21T07:49:37.405Z,92.90
2018-09-21T07:52:09.703Z,93.10
2018-09-21T07:54:42.821Z,92.80
2018-09-21T07:57:14.158Z,92.40
2018-09-21T07:59:45.449Z,92.10
2018-09-21T08:02:16.277Z,91.90
2018-09-21T08:04:47.691Z,91.40
2018-09-21T08:07:31.858Z,91.40
2018-09-21T08:10:02.454Z,91.00
2018-09-21T08:12:33.253Z,91.40
2018-09-21T08:15:04.399Z,91.50
2018-09-21T08:17:34.889Z,91.40
2018-09-21T08:20:08.533Z,91.00
2018-09-21T08:22:43.960Z,90.40
2018-09-21T08:25:15.566Z,90.00
2018-09-21T08:27:48.664Z,87.70
2018-09-21T08:30:20.686Z,88.00
2018-09-21T08:32:51.874Z,86.50
2018-09-21T08:35:23.623Z,85.60
2018-09-21T08:37:54.018Z,83.70
2018-09-21T08:40:25.834Z,81.20
2018-09-21T08:42:59.033Z,79.50
2018-09-21T08:45:31.373Z,77.50
2018-09-21T08:48:03.741Z,76.20
2018-09-21T08:50:34.828Z,74.70
2018-09-21T08:53:05.520Z,72.10
2018-09-21T08:55:37.370Z,68.60
2018-09-21T08:58:08.340Z,67.50
2018-09-21T09:00:40.014Z,64.00
2018-09-21T09:03:11.227Z,61.90
2018-09-21T09:05:43.040Z,54.90
2018-09-21T09:08:13.769Z,48.90
2018-09-21T09:10:44.089Z,47.00
2018-09-21T09:13:14.598Z,49.00
2018-09-21T09:15:46.979Z,52.10
2018-09-21T09:18:22.982Z,52.50
2018-09-21T09:20:54.964Z,52.00
2018-09-21T09:23:25.095Z,49.30
2018-09-21T09:25:55.132Z,47.10
2018-09-21T09:28:25.594Z,49.10
2018-09-21T09:30:57.089Z,50.40
2018-09-21T09:33:29.475Z,50.60
2018-09-21T09:36:00.017Z,51.50
2018-09-21T09:38:30.471Z,51.20
2018-09-21T09:41:01.878Z,50.00
2018-09-21T09:43:32.840Z,48.40
2018-09-21T09:46:03.249Z,48.20
2018-09-21T09:48:33.737Z,48.30
2018-09-21T09:51:06.249Z,49.10
2018-09-21T09:53:36.681Z,50.80
2018-09-21T09:56:07.116Z,51.80
2018-09-21T09:58:38.325Z,53.00
2018-09-21T10:01:09.366Z,54.20
2018-09-21T10:03:41.658Z,55.40
2018-09-21T10:06:12.169Z,55.90
2018-09-21T10:08:43.551Z,57.00
2018-09-21T10:11:14.939Z,58.10
2018-09-21T10:13:46.428Z,59.00
2018-09-21T10:16:16.456Z,58.90
2018-09-21T10:18:48.626Z,59.20
2018-09-21T10:21:19.031Z,60.20
2018-09-21T10:23:50.008Z,60.40
2018-09-21T10:26:24.452Z,61.50
2018-09-21T10:29:26.342Z,61.30
2018-09-21T10:31:59.587Z,61.60
2018-09-21T10:34:31.349Z,62.10
2018-09-21T10:37:02.916Z,62.50
2018-09-21T10:39:33.619Z,62.60
2018-09-21T10:42:06.165Z,63.10
2018-09-21T10:44:38.403Z,63.90
2018-09-21T10:47:19.313Z,64.10
2018-09-21T10:50:08.018Z,64.60
2018-09-21T10:52:40.255Z,65.00
2018-09-21T10:55:11.351Z,64.90
2018-09-21T10:57:43.485Z,65.30
2018-09-21T11:00:15.765Z,65.10
2018-09-21T11:02:48.551Z,66.00
2018-09-21T11:05:19.919Z,66.00
2018-09-21T11:07:52.989Z,66.70
2018-09-21T11:10:26.923Z,67.30
2018-09-21T11:12:59.131Z,67.30
2018-09-21T11:15:31.031Z,67.70
2018-09-21T11:18:03.119Z,68.70
2018-09-21T11:20:35.889Z,69.50
2018-09-21T11:23:08.707Z,69.90
2018-09-21T11:25:40.053Z,70.20
2018-09-21T11:28:11.036Z,71.30
2018-09-21T11:30:44.060Z,71.30
2018-09-21T11:33:16.045Z,71.80
2018-09-21T11:35:45.286Z,72.60
2018-09-21T11:38:14.530Z,72.80
2018-09-21T11:40:43.913Z,73.40
2018-09-21T11:43:14.064Z,73.40
2018-09-21T11:45:43.512Z,73.50
2018-09-21T11:48:12.557Z,73.40
2018-09-21T11:50:41.687Z,73.60
2018-09-21T11:53:10.609Z,73.20
2018-09-21T11:55:39.377Z,73.60
2018-09-21T11:58:08.977Z,73.50
2018-09-21T12:00:37.946Z,73.40
2018-09-21T12:03:07.017Z,73.40
2018-09-21T12:05:36.311Z,74.00
2018-09-21T12:08:05.731Z,73.40
2018-09-21T12:10:34.775Z,72.90
2018-09-21T12:13:04.077Z,72.80
2018-09-21T12:15:33.100Z,72.20
2018-09-21T12:18:02.268Z,72.00
2018-09-21T12:20:31.132Z,72.10
2018-09-21T12:23:00.212Z,72.80
2018-09-21T12:25:29.385Z,71.90
2018-09-21T12:27:59.370Z,72.30
2018-09-21T12:30:28.500Z,71.40
2018-09-21T12:32:57.329Z,71.20
2018-09-21T12:35:26.209Z,70.70
2018-09-21T12:37:55.349Z,71.30
2018-09-21T12:40:24.265Z,70.20
2018-09-21T12:42:53.132Z,69.90
2018-09-21T12:45:22.219Z,70.30
2018-09-21T12:47:51.074Z,68.50
2018-09-21T12:50:20.161Z,68.80
2018-09-21T12:52:49.516Z,68.80
2018-09-21T12:55:18.961Z,69.00
2018-09-21T12:57:48.104Z,68.10
2018-09-21T13:00:17.365Z,67.30
2018-09-21T13:02:46.576Z,67.90
2018-09-21T13:05:15.722Z,67.20
2018-09-21T13:07:45.244Z,66.50
2018-09-21T13:10:14.489Z,65.90
2018-09-21T13:12:43.993Z,66.20
2018-09-21T13:15:13.189Z,65.30
2018-09-21T13:17:42.306Z,65.60
2018-09-21T13:20:11.372Z,65.40
2018-09-21T13:22:40.624Z,65.40
2018-09-21T13:25:09.797Z,65.10
2018-09-21T13:27:38.727Z,65.20
2018-09-21T13:30:08.386Z,64.50
2018-09-21T13:32:37.662Z,64.00
2018-09-21T13:35:07.363Z,63.60
2018-09-21T13:37:36.565Z,62.70
2018-09-21T13:40:05.991Z,61.50
2018-09-21T13:42:34.829Z,59.90
2018-09-21T13:45:03.997Z,59.40
2018-09-21T13:47:33.065Z,57.40
2018-09-21T13:50:02.262Z,54.10
2018-09-21T13:52:34.325Z,53.20
2018-09-21T13:55:03.149Z,52.70
2018-09-21T13:57:33.110Z,52.20
2018-09-21T14:00:02.688Z,51.10
2018-09-21T14:02:32.253Z,50.60
2018-09-21T14:05:04.311Z,49.80
2018-09-21T14:07:35.172Z,49.80
2018-09-21T14:10:04.466Z,50.40
2018-09-21T14:12:33.514Z,49.20
2018-09-21T14:15:02.515Z,49.40
2018-09-21T14:17:32.104Z,49.00
2018-09-21T14:20:01.307Z,49.30
2018-09-21T14:22:30.259Z,49.30
2018-09-21T14:24:59.508Z,49.20
2018-09-21T14:27:28.922Z,49.50
2018-09-21T14:29:58.970Z,49.60
2018-09-21T14:32:28.673Z,49.70
2018-09-21T14:34:57.565Z,49.20
2018-09-21T14:37:26.586Z,49.30
2018-09-21T14:39:55.935Z,49.10
2018-09-21T14:42:25.361Z,48.50
2018-09-21T14:44:54.363Z,48.80
2018-09-21T14:47:23.358Z,48.90
2018-09-21T14:49:52.220Z,50.10
2018-09-21T14:52:21.201Z,52.70
2018-09-21T14:54:50.132Z,55.60
2018-09-21T14:57:19.120Z,58.40
2018-09-21T14:59:50.645Z,60.00
2018-09-21T15:02:19.612Z,61.40
2018-09-21T15:04:48.402Z,62.00
2018-09-21T15:07:17.349Z,62.50
2018-09-21T15:09:46.707Z,63.00
2018-09-21T15:12:16.053Z,65.90
2018-09-21T15:14:45.001Z,79.40
2018-09-21T15:17:14.024Z,86.40
2018-09-21T15:19:43.296Z,91.40
2018-09-21T15:22:12.193Z,94.20
2018-09-21T15:24:41.044Z,94.30
2018-09-21T15:27:10.180Z,94.70
2018-09-21T15:29:39.114Z,93.30
2018-09-21T15:32:08.041Z,94.20
2018-09-21T15:34:36.830Z,94.80
2018-09-21T15:37:05.712Z,95.90
2018-09-21T15:39:34.514Z,97.50
2018-09-21T15:42:03.665Z,98.10
2018-09-21T15:44:32.875Z,98.00
2018-09-21T15:47:03.817Z,98.20
2018-09-21T15:49:33.291Z,98.30
2018-09-21T15:52:02.203Z,99.00
2018-09-21T15:54:31.261Z,99.70
2018-09-21T15:57:00.057Z,99.90
2018-09-21T15:59:28.989Z,99.90
2018-09-21T16:01:57.819Z,99.90
2018-09-21T16:04:27.618Z,99.90
2018-09-21T16:06:56.569Z,99.90
2018-09-21T16:09:25.539Z,99.90
2018-09-21T16:11:55.851Z,99.90
2018-09-21T16:14:25.749Z,99.90
2018-09-21T16:16:55.363Z,99.90
2018-09-21T16:19:24.836Z,99.90
2018-09-21T16:21:53.694Z,99.90
2018-09-21T16:24:22.606Z,99.90
2018-09-21T16:26:51.580Z,99.90
2018-09-21T16:29:20.694Z,99.90
2018-09-21T16:31:49.726Z,99.90
2018-09-21T16:34:18.532Z,99.90
2018-09-21T16:36:47.461Z,99.90
2018-09-21T16:39:16.371Z,99.90
2018-09-21T16:41:45.313Z,99.90
2018-09-21T16:44:14.057Z,99.90
2018-09-21T16:46:43.010Z,99.90
2018-09-21T16:49:12.105Z,99.90
2018-09-21T16:51:40.919Z,99.90
2018-09-21T16:54:09.752Z,99.90
2018-09-21T16:56:38.749Z,99.90
2018-09-21T16:59:37.070Z,99.90
2018-09-21T17:02:35.275Z,99.90
2018-09-21T17:05:04.253Z,99.90
2018-09-21T17:07:33.315Z,99.90
2018-09-21T17:10:02.274Z,99.90
2018-09-21T17:12:31.156Z,99.90
2018-09-21T17:15:00.361Z,99.90
2018-09-21T17:17:29.386Z,99.90
2018-09-21T17:19:58.173Z,99.90
2018-09-21T17:22:26.963Z,99.90
2018-09-21T17:24:56.165Z,99.90
2018-09-21T17:27:25.033Z,99.90
2018-09-21T17:29:54.076Z,99.90
2018-09-21T17:32:22.847Z,99.90
2018-09-21T17:34:51.928Z,99.90
2018-09-21T17:37:20.921Z,99.90
2018-09-21T17:39:49.815Z,99.90
2018-09-21T17:42:18.626Z,99.90
2018-09-21T17:44:47.654Z,99.90
2018-09-21T17:47:16.547Z,99.90
2018-09-21T17:49:45.334Z,99.90
2018-09-21T17:52:14.173Z,99.90
2018-09-21T17:54:43.346Z,99.90
2018-09-21T17:57:12.222Z,99.90
2018-09-21T17:59:41.354Z,99.90
2018-09-21T18:02:10.428Z,99.90
2018-09-21T18:04:39.398Z,99.90
2018-09-21T18:07:08.919Z,99.90
2018-09-21T18:09:38.186Z,99.90
2018-09-21T18:12:08.122Z,99.90
2018-09-21T18:14:37.172Z,99.90
2018-09-21T18:17:06.365Z,99.90
2018-09-21T18:19:35.350Z,99.90
2018-09-21T18:22:04.365Z,99.90
2018-09-21T18:24:33.452Z,99.90
2018-09-21T18:27:02.429Z,99.90
2018-09-21T18:29:31.273Z,99.90
2018-09-21T18:32:00.313Z,99.90
2018-09-21T18:34:29.302Z,99.90
2018-09-21T18:36:58.073Z,99.90
2018-09-21T18:39:27.396Z,99.90
2018-09-21T18:41:56.360Z,99.90
2018-09-21T18:44:25.648Z,99.90
2018-09-21T18:46:54.698Z,99.90
2018-09-21T18:49:23.876Z,99.90
2018-09-21T18:51:52.993Z,99.90
2018-09-21T18:54:22.513Z,99.90
2018-09-21T18:56:51.614Z,99.90
2018-09-21T18:59:20.357Z,99.90
2018-09-21T19:01:49.223Z,99.90
2018-09-21T19:04:18.363Z,99.90
2018-09-21T19:06:47.386Z,99.90
2018-09-21T19:09:16.173Z,99.90
2018-09-21T19:11:45.340Z,99.90
2018-09-21T19:14:14.602Z,99.90
2018-09-21T19:16:43.651Z,99.90
2018-09-21T19:19:12.681Z,99.90
2018-09-21T19:21:41.970Z,99.90
2018-09-21T19:24:10.934Z,99.90
2018-09-21T19:26:39.897Z,99.90
2018-09-21T19:29:09.605Z,99.90
2018-09-21T19:31:38.763Z,99.90
2018-09-21T19:34:08.043Z,99.90
2018-09-21T19:36:37.165Z,99.90
2018-09-21T19:39:09.185Z,99.90
2018-09-21T19:41:38.048Z,99.90
2018-09-21T19:44:07.073Z,99.90
2018-09-21T19:46:36.081Z,99.90
2018-09-21T19:49:04.881Z,99.90
2018-09-21T19:51:33.912Z,99.90
2018-09-21T19:54:02.849Z,99.90
2018-09-21T19:56:31.630Z,99.90
2018-09-21T19:59:00.466Z,99.90
2018-09-21T20:01:29.227Z,99.90
2018-09-21T20:04:04.934Z,99.90
2018-09-21T20:06:35.000Z,99.90
2018-09-21T20:09:05.161Z,99.90
2018-09-21T20:11:33.940Z,99.90
2018-09-21T20:14:02.900Z,99.90
2018-09-21T20:16:32.002Z,99.90
2018-09-21T20:19:00.781Z,99.90
2018-09-21T20:21:30.160Z,99.90
2018-09-21T20:23:59.414Z,99.90
2018-09-21T20:26:28.123Z,99.90
2018-09-21T20:28:57.101Z,99.90
2018-09-21T20:31:31.337Z,99.90
2018-09-21T20:34:00.329Z,99.90
2018-09-21T20:36:29.245Z,99.90
2018-09-21T20:38:58.223Z,99.90
2018-09-21T20:41:27.609Z,99.90
2018-09-21T20:43:57.058Z,99.90
2018-09-21T20:46:26.177Z,99.90
2018-09-21T20:48:55.489Z,99.90
2018-09-21T20:51:24.396Z,99.90
2018-09-21T20:53:53.306Z,99.90
2018-09-21T20:56:22.289Z,99.90
2018-09-21T20:58:51.098Z,99.90
2018-09-21T21:01:20.150Z,99.90
2018-09-21T21:03:49.378Z,99.90
2018-09-21T21:06:18.519Z,99.90
2018-09-21T21:08:47.329Z,99.90
2018-09-21T21:11:16.425Z,99.90
2018-09-21T21:13:45.669Z,99.90
2018-09-21T21:16:14.854Z,99.90
2018-09-21T21:18:43.603Z,99.90
2018-09-21T21:21:12.514Z,99.90
2018-09-21T21:23:41.522Z,99.90
2018-09-21T21:26:10.619Z,99.90
2018-09-21T21:28:39.800Z,99.90
2018-09-21T21:31:08.652Z,99.90
2018-09-21T21:33:37.795Z,99.90
2018-09-21T21:36:06.931Z,99.90
2018-09-21T21:38:35.740Z,99.90
2018-09-21T21:41:04.715Z,99.90
2018-09-21T21:43:33.702Z,99.90
2018-09-21T21:46:02.502Z,99.90
2018-09-21T21:48:31.404Z,99.90
2018-09-21T21:51:00.234Z,99.90
2018-09-21T21:53:29.179Z,99.90
2018-09-21T21:55:57.989Z,99.90
2018-09-21T21:58:26.768Z,99.90
2018-09-21T22:01:00.938Z,99.90
2018-09-21T22:03:29.914Z,99.90
2018-09-21T22:05:59.119Z,99.90
2018-09-21T22:08:27.960Z,99.90
2018-09-21T22:10:56.720Z,99.90
2018-09-21T22:13:31.252Z,99.90
2018-09-21T22:16:00.104Z,99.90
2018-09-21T22:18:28.944Z,99.90
2018-09-21T22:20:57.768Z,99.90
2018-09-21T22:23:26.938Z,99.90
2018-09-21T22:25:55.751Z,99.90
2018-09-21T22:28:24.891Z,99.90
2018-09-21T22:30:53.663Z,99.90
2018-09-21T22:33:22.454Z,99.90
2018-09-21T22:35:51.414Z,99.90
2018-09-21T22:38:20.670Z,99.90
2018-09-21T22:40:50.056Z,99.90
2018-09-21T22:43:18.997Z,99.90
2018-09-21T22:45:47.875Z,99.90
2018-09-21T22:48:16.794Z,99.90
2018-09-21T22:50:46.005Z,99.90
2018-09-21T22:53:15.020Z,99.90
2018-09-21T22:55:43.865Z,99.90
2018-09-21T22:58:12.653Z,99.90
2018-09-21T23:00:41.562Z,99.90
2018-09-21T23:03:10.279Z,99.90
2018-09-21T23:05:39.774Z,99.90
2018-09-21T23:08:08.744Z,99.90
2018-09-21T23:10:37.905Z,99.90
2018-09-21T23:13:06.921Z,99.90
2018-09-21T23:15:35.737Z,99.90
2018-09-21T23:18:04.666Z,99.90
2018-09-21T23:20:33.613Z,99.90
2018-09-21T23:23:02.446Z,99.90
2018-09-21T23:25:31.937Z,99.90
2018-09-21T23:28:01.021Z,99.90
2018-09-21T23:30:29.999Z,99.90
2018-09-21T23:32:58.732Z,99.90
2018-09-21T23:35:27.518Z,99.90
2018-09-21T23:37:56.664Z,99.90
2018-09-21T23:40:25.884Z,99.90
2018-09-21T23:42:55.614Z,99.90
2018-09-21T23:45:24.651Z,99.90
2018-09-21T23:47:53.633Z,99.90
2018-09-21T23:50:22.925Z,99.90
2018-09-21T23:52:52.081Z,99.90
2018-09-21T23:55:20.945Z,99.90
2018-09-21T23:57:50.036Z,99.90
